createdAt,value
2022-09-26T00:06:43.965Z,11.37
2022-09-26T00:09:19.972Z,11.37
2022-09-26T00:11:53.865Z,11.37
2022-09-26T00:15:17.618Z,11.40
2022-09-26T00:16:47.141Z,11.40
2022-09-26T00:18:44.039Z,11.41
2022-09-26T00:20:42.902Z,11.40
2022-09-26T00:26:12.642Z,11.37
2022-09-26T00:28:33.947Z,11.37
2022-09-26T00:33:38.199Z,11.35
2022-09-26T00:37:56.606Z,11.33
2022-09-26T00:40:17.436Z,11.32
2022-09-26T00:46:46.020Z,11.32
2022-09-26T00:48:44.806Z,11.32
2022-09-26T00:51:04.482Z,11.32
2022-09-26T00:53:02.409Z,11.29
2022-09-26T00:55:23.981Z,11.30
2022-09-26T00:57:50.920Z,11.29
2022-09-26T01:02:19.824Z,11.30
2022-09-26T01:03:48.630Z,11.30
2022-09-26T01:06:18.320Z,11.32
2022-09-26T01:11:59.657Z,11.30
2022-09-26T01:15:57.697Z,11.27
2022-09-26T01:23:55.114Z,11.19
2022-09-26T01:27:25.276Z,11.18
2022-09-26T01:31:37.848Z,11.18
2022-09-26T01:33:35.430Z,11.17
2022-09-26T01:35:59.244Z,11.17
2022-09-26T01:37:28.711Z,11.18
2022-09-26T01:39:20.018Z,11.17
2022-09-26T01:42:27.200Z,11.19
2022-09-26T01:43:59.450Z,11.18
2022-09-26T01:46:39.917Z,11.19
2022-09-26T01:49:01.716Z,11.19
2022-09-26T01:50:31.682Z,11.19
2022-09-26T01:52:32.785Z,11.22
2022-09-26T01:54:19.284Z,11.19
2022-09-26T01:55:51.033Z,11.19
2022-09-26T02:00:17.903Z,11.19
2022-09-26T02:03:31.847Z,11.22
2022-09-26T02:05:50.185Z,11.23
2022-09-26T02:07:17.485Z,11.26
2022-09-26T02:12:17.615Z,11.27
2022-09-26T02:14:16.010Z,11.32
2022-09-26T02:16:37.206Z,11.35
2022-09-26T02:19:07.287Z,11.36
2022-09-26T02:22:07.048Z,11.37
2022-09-26T02:23:37.780Z,11.36
2022-09-26T02:27:25.893Z,11.40
2022-09-26T02:30:08.815Z,11.40
2022-09-26T02:31:39.322Z,11.40
2022-09-26T02:33:56.980Z,11.40
2022-09-26T02:35:57.138Z,11.37
2022-09-26T02:39:02.213Z,11.40
2022-09-26T02:42:12.696Z,11.36
2022-09-26T02:44:04.409Z,11.36
2022-09-26T02:47:02.876Z,11.32
2022-09-26T02:49:18.750Z,11.33
2022-09-26T02:53:48.038Z,11.32
2022-09-26T02:56:59.863Z,11.29
2022-09-26T02:58:57.725Z,11.26
2022-09-26T03:00:58.936Z,11.26
2022-09-26T03:04:44.539Z,11.19
2022-09-26T03:06:14.453Z,11.19
2022-09-26T03:08:05.217Z,11.22
2022-09-26T03:10:25.863Z,11.17
2022-09-26T03:13:15.480Z,11.12
2022-09-26T03:19:21.572Z,11.14
2022-09-26T03:20:52.149Z,11.15
2022-09-26T03:29:45.404Z,11.14
2022-09-26T03:33:21.880Z,11.12
2022-09-26T03:35:52.643Z,11.15
2022-09-26T03:38:49.705Z,11.14
2022-09-26T03:42:24.499Z,11.15
2022-09-26T03:46:29.966Z,11.14
2022-09-26T03:50:17.389Z,11.15
2022-09-26T03:52:37.226Z,11.15
2022-09-26T03:55:08.710Z,11.15
2022-09-26T04:00:49.265Z,11.18
2022-09-26T04:02:48.159Z,11.18
2022-09-26T04:04:35.942Z,11.19
2022-09-26T04:07:00.722Z,11.18
2022-09-26T04:08:30.914Z,11.18
2022-09-26T04:16:03.727Z,11.17
2022-09-26T04:18:59.455Z,11.15
2022-09-26T04:21:59.175Z,11.18
2022-09-26T04:24:48.570Z,11.22
2022-09-26T04:26:22.996Z,11.22
2022-09-26T04:27:47.637Z,11.22
2022-09-26T04:29:16.626Z,11.19
2022-09-26T04:32:16.271Z,11.22
2022-09-26T04:34:16.326Z,11.19
2022-09-26T04:36:12.361Z,11.19
2022-09-26T04:37:42.728Z,11.22
2022-09-26T04:39:12.234Z,11.19
2022-09-26T04:40:43.178Z,11.18
2022-09-26T04:43:00.758Z,11.19
2022-09-26T04:48:55.652Z,11.18
2022-09-26T04:50:55.488Z,11.18
2022-09-26T04:54:22.731Z,11.18
2022-09-26T04:57:20.070Z,11.17
2022-09-26T04:58:48.950Z,11.17
2022-09-26T05:00:55.533Z,11.14
2022-09-26T05:03:32.405Z,11.14
2022-09-26T05:05:05.217Z,11.12
2022-09-26T05:06:32.328Z,11.12
2022-09-26T05:09:35.584Z,11.08
2022-09-26T05:11:00.591Z,11.05
2022-09-26T05:13:33.410Z,11.05
2022-09-26T05:15:33.652Z,11.02
2022-09-26T05:18:01.189Z,11.04
2022-09-26T05:19:30.600Z,11.02
2022-09-26T05:21:58.996Z,11.00
2022-09-26T05:31:04.109Z,10.87
2022-09-26T05:35:36.313Z,10.89
2022-09-26T05:37:37.262Z,10.89
2022-09-26T05:39:33.106Z,10.90
2022-09-26T05:46:02.243Z,10.90
2022-09-26T05:59:30.741Z,10.87
2022-09-26T06:00:59.656Z,10.86
2022-09-26T06:03:26.457Z,10.86
2022-09-26T06:06:14.783Z,10.89
2022-09-26T06:19:50.863Z,10.96
2022-09-26T06:21:50.863Z,10.99
2022-09-26T06:23:22.714Z,10.99
2022-09-26T06:24:50.684Z,11.00
2022-09-26T06:26:19.918Z,11.00
2022-09-26T06:29:07.184Z,11.02
2022-09-26T06:30:36.044Z,11.05
2022-09-26T06:35:05.331Z,11.08
2022-09-26T06:38:52.461Z,11.11
2022-09-26T06:40:45.024Z,11.12
2022-09-26T06:44:11.186Z,11.11
2022-09-26T06:45:43.014Z,11.12
2022-09-26T06:49:46.931Z,11.12
2022-09-26T06:51:17.706Z,11.12
2022-09-26T06:55:25.605Z,11.11
2022-09-26T07:01:24.288Z,11.14
2022-09-26T07:07:40.659Z,11.12
2022-09-26T07:14:08.358Z,11.14
2022-09-26T07:15:34.364Z,11.14
2022-09-26T07:18:20.957Z,11.14
2022-09-26T07:24:05.484Z,11.15
2022-09-26T07:31:10.617Z,11.22
2022-09-26T07:33:08.488Z,11.22
2022-09-26T07:35:08.512Z,11.22
2022-09-26T07:36:37.364Z,11.23
2022-09-26T07:38:56.060Z,11.23
2022-09-26T07:40:29.846Z,11.27
2022-09-26T07:43:35.827Z,11.27
2022-09-26T07:45:29.429Z,11.29
2022-09-26T07:48:20.750Z,11.33
2022-09-26T07:53:48.103Z,11.43
2022-09-26T07:55:46.937Z,11.45
2022-09-26T07:58:14.732Z,11.50
2022-09-26T08:00:43.789Z,11.54
2022-09-26T08:02:14.863Z,11.55
2022-09-26T08:03:44.663Z,11.59
2022-09-26T08:07:21.253Z,11.62
2022-09-26T08:10:19.056Z,11.66
2022-09-26T08:13:46.510Z,11.72
2022-09-26T08:18:00.004Z,11.78
2022-09-26T08:19:28.896Z,11.78
2022-09-26T08:20:57.802Z,11.80
2022-09-26T08:26:27.756Z,11.87
2022-09-26T08:28:57.575Z,11.88
2022-09-26T08:31:46.525Z,11.88
2022-09-26T08:33:37.043Z,11.88
2022-09-26T08:35:37.893Z,11.88
2022-09-26T08:41:39.333Z,11.83
2022-09-26T08:44:02.587Z,11.83
2022-09-26T08:46:27.497Z,11.83
2022-09-26T08:50:27.868Z,11.87
2022-09-26T08:51:58.727Z,11.86
2022-09-26T08:55:54.135Z,11.84
2022-09-26T09:08:56.981Z,11.87
2022-09-26T09:11:15.579Z,11.84
2022-09-26T09:15:23.488Z,11.83
2022-09-26T09:17:28.926Z,11.77
2022-09-26T09:22:16.998Z,11.78
2022-09-26T09:24:45.823Z,11.75
2022-09-26T09:31:11.754Z,11.77
2022-09-26T09:36:25.220Z,11.77
2022-09-26T09:38:57.131Z,11.80
2022-09-26T09:40:26.113Z,11.78
2022-09-26T09:45:22.657Z,11.83
2022-09-26T09:46:51.627Z,11.84
2022-09-26T09:48:20.451Z,11.90
2022-09-26T09:50:19.373Z,11.91
2022-09-26T09:52:17.562Z,11.97
2022-09-26T09:55:44.266Z,12.03
2022-09-26T10:01:48.257Z,12.02
2022-09-26T10:05:18.099Z,12.03
2022-09-26T10:09:35.884Z,12.00
2022-09-26T10:16:36.940Z,11.90
2022-09-26T10:18:34.127Z,11.88
2022-09-26T10:21:21.623Z,11.88
2022-09-26T10:24:23.203Z,11.87
2022-09-26T10:31:12.084Z,11.91
2022-09-26T10:35:13.359Z,11.94
2022-09-26T10:39:40.626Z,12.02
2022-09-26T10:42:40.505Z,11.99
2022-09-26T10:44:37.522Z,12.02
2022-09-26T10:46:36.657Z,12.02
2022-09-26T10:49:24.366Z,12.02
2022-09-26T10:56:07.212Z,12.04
2022-09-26T10:57:36.124Z,12.02
2022-09-26T10:59:05.497Z,12.00
2022-09-26T11:00:52.010Z,11.99
2022-09-26T11:03:38.270Z,12.00
2022-09-26T11:06:46.711Z,11.99
2022-09-26T11:10:32.540Z,11.99
2022-09-26T11:12:30.258Z,12.00
2022-09-26T11:14:01.208Z,12.00
2022-09-26T11:16:46.077Z,11.99
2022-09-26T11:18:15.993Z,11.97
2022-09-26T11:22:29.256Z,12.02
2022-09-26T11:25:24.041Z,12.02
2022-09-26T11:26:52.972Z,12.03
2022-09-26T11:29:21.152Z,12.04
2022-09-26T11:30:57.421Z,12.06
2022-09-26T11:32:26.416Z,12.07
2022-09-26T11:38:06.188Z,12.09
2022-09-26T11:40:33.715Z,12.12
2022-09-26T11:42:03.619Z,12.12
2022-09-26T11:46:45.979Z,12.13
2022-09-26T11:52:36.840Z,12.13
2022-09-26T11:55:51.140Z,12.20
2022-09-26T12:01:34.176Z,12.20
2022-09-26T12:03:02.878Z,12.20
2022-09-26T12:06:17.324Z,12.24
2022-09-26T12:07:46.219Z,12.25
2022-09-26T12:11:15.150Z,12.27
2022-09-26T12:13:50.495Z,12.29
2022-09-26T12:15:52.553Z,12.29
2022-09-26T12:17:48.443Z,12.29
2022-09-26T12:19:20.300Z,12.29
2022-09-26T12:20:48.566Z,12.29
2022-09-26T12:25:20.495Z,12.28
2022-09-26T12:27:48.887Z,12.28
2022-09-26T12:34:08.955Z,12.22
2022-09-26T12:47:01.614Z,12.20
2022-09-26T12:48:33.365Z,12.21
2022-09-26T12:53:01.826Z,12.20
2022-09-26T13:00:09.888Z,12.17
2022-09-26T13:01:44.175Z,12.15
2022-09-26T13:04:25.485Z,12.18
2022-09-26T13:08:36.555Z,12.15
2022-09-26T13:13:01.101Z,12.18
2022-09-26T13:18:09.580Z,12.18
2022-09-26T13:22:14.843Z,12.15
2022-09-26T13:23:50.527Z,12.12
2022-09-26T13:25:39.127Z,12.13
2022-09-26T13:28:38.201Z,12.13
2022-09-26T13:37:22.311Z,12.18
2022-09-26T13:39:31.253Z,12.17
2022-09-26T13:44:24.068Z,12.13
2022-09-26T13:46:55.673Z,12.17
2022-09-26T13:48:25.628Z,12.15
2022-09-26T13:51:40.134Z,12.13
2022-09-26T13:54:12.301Z,12.12
2022-09-26T13:55:41.580Z,12.10
2022-09-26T13:58:12.510Z,12.07
2022-09-26T14:01:01.254Z,12.09
2022-09-26T14:04:52.391Z,12.10
2022-09-26T14:10:04.184Z,12.09
2022-09-26T14:12:30.059Z,12.09
2022-09-26T14:14:29.906Z,12.09
2022-09-26T14:16:28.845Z,12.07
2022-09-26T14:20:24.235Z,12.12
2022-09-26T14:29:26.444Z,12.07
2022-09-26T14:32:46.646Z,12.04
2022-09-26T14:34:15.179Z,12.03
2022-09-26T14:36:18.334Z,12.02
2022-09-26T14:40:26.688Z,12.03
2022-09-26T14:42:25.499Z,12.03
2022-09-26T14:48:40.332Z,12.06
2022-09-26T14:49:50.255Z,12.04
2022-09-26T14:51:45.607Z,12.07
2022-09-26T14:55:26.064Z,12.09
2022-09-26T14:57:47.777Z,12.09
2022-09-26T15:02:08.701Z,12.09
2022-09-26T15:03:37.619Z,12.10
2022-09-26T15:05:42.413Z,12.12
2022-09-26T15:10:39.489Z,12.07
2022-09-26T15:13:57.185Z,12.06
2022-09-26T15:16:16.187Z,12.06
2022-09-26T15:18:57.497Z,12.04
2022-09-26T15:20:29.346Z,12.03
2022-09-26T15:23:24.796Z,12.04
2022-09-26T15:25:42.546Z,12.04
2022-09-26T15:27:46.109Z,12.06
2022-09-26T15:29:33.765Z,12.04
2022-09-26T15:31:03.681Z,12.06
2022-09-26T15:33:41.133Z,12.06
2022-09-26T15:37:38.129Z,12.06
2022-09-26T15:39:07.720Z,12.06
2022-09-26T15:42:33.568Z,12.03
2022-09-26T15:44:52.547Z,12.02
2022-09-26T15:50:33.083Z,12.04
2022-09-26T15:53:25.339Z,12.02
2022-09-26T15:57:15.073Z,12.02
2022-09-26T15:58:45.755Z,12.03
2022-09-26T16:01:02.586Z,12.02
2022-09-26T16:02:33.393Z,12.04
2022-09-26T16:04:32.531Z,12.03
2022-09-26T16:05:59.770Z,12.03
2022-09-26T16:13:54.986Z,12.03
2022-09-26T16:21:11.629Z,12.02
2022-09-26T16:25:21.785Z,12.03
2022-09-26T16:31:42.412Z,12.04
2022-09-26T16:34:12.549Z,12.06
2022-09-26T16:35:43.498Z,12.06
2022-09-26T16:37:11.506Z,12.07
2022-09-26T16:38:44.735Z,12.07
2022-09-26T16:40:14.831Z,12.07
2022-09-26T16:43:32.542Z,12.09
2022-09-26T16:47:49.980Z,12.07
2022-09-26T16:52:30.867Z,12.10
2022-09-26T16:55:00.725Z,12.10
2022-09-26T16:57:01.938Z,12.10
2022-09-26T17:05:13.301Z,12.07
2022-09-26T17:07:11.279Z,12.07
2022-09-26T17:14:29.811Z,12.07
2022-09-26T17:15:57.280Z,12.07
2022-09-26T17:17:28.056Z,12.07
2022-09-26T17:18:55.409Z,12.07
2022-09-26T17:22:04.984Z,12.06
2022-09-26T17:27:54.887Z,12.06
2022-09-26T17:32:11.488Z,12.07
2022-09-26T17:34:40.004Z,12.09
2022-09-26T17:36:32.923Z,12.07
2022-09-26T17:39:01.971Z,12.07
2022-09-26T17:41:01.151Z,12.07
2022-09-26T17:46:58.886Z,12.06
2022-09-26T17:50:23.335Z,12.07
2022-09-26T17:52:42.085Z,12.04
2022-09-26T17:56:02.546Z,12.04
2022-09-26T17:57:52.375Z,12.03
2022-09-26T17:59:25.185Z,12.03
2022-09-26T18:00:53.310Z,12.04
2022-09-26T18:03:19.203Z,12.03
2022-09-26T18:04:46.641Z,12.03
2022-09-26T18:10:11.240Z,12.03
2022-09-26T18:12:12.057Z,12.06
2022-09-26T18:23:51.088Z,12.07
2022-09-26T18:25:20.939Z,12.06
2022-09-26T18:26:51.612Z,12.06
2022-09-26T18:28:59.932Z,12.04
2022-09-26T18:37:50.649Z,12.03
2022-09-26T18:42:50.253Z,12.02
2022-09-26T18:44:21.981Z,12.03
2022-09-26T18:48:14.161Z,12.03
2022-09-26T18:57:28.018Z,12.03
2022-09-26T18:58:56.910Z,12.03
2022-09-26T19:01:25.881Z,12.04
2022-09-26T19:02:56.694Z,12.03
2022-09-26T19:04:56.678Z,12.03
2022-09-26T19:06:54.733Z,12.03
2022-09-26T19:08:25.113Z,12.03
2022-09-26T19:10:52.391Z,12.03
2022-09-26T19:13:27.539Z,12.04
2022-09-26T19:15:44.059Z,12.04
2022-09-26T19:18:40.926Z,12.04
2022-09-26T19:24:43.143Z,12.04
2022-09-26T19:26:40.919Z,12.03
2022-09-26T19:32:48.004Z,12.03
2022-09-26T19:35:36.580Z,12.03
2022-09-26T19:37:15.584Z,12.03
2022-09-26T19:39:14.911Z,12.03
2022-09-26T19:42:04.957Z,12.03
2022-09-26T19:45:22.732Z,12.00
2022-09-26T19:47:51.502Z,12.02
2022-09-26T19:49:43.295Z,11.99
2022-09-26T19:51:14.090Z,12.00
2022-09-26T19:54:06.261Z,12.00
2022-09-26T19:56:21.545Z,11.99
2022-09-26T19:57:53.396Z,11.99
2022-09-26T19:59:27.213Z,11.99
2022-09-26T20:02:46.713Z,11.97
2022-09-26T20:09:28.845Z,11.94
2022-09-26T20:11:56.061Z,11.97
2022-09-26T20:13:27.779Z,11.95
2022-09-26T20:14:55.767Z,11.97
2022-09-26T20:16:57.851Z,11.95
2022-09-26T20:18:57.174Z,11.95
2022-09-26T20:20:26.463Z,11.95
2022-09-26T20:22:46.137Z,11.94
2022-09-26T20:31:55.479Z,11.97
2022-09-26T20:33:55.390Z,11.99
2022-09-26T20:36:36.246Z,12.00
2022-09-26T20:38:37.906Z,11.99
2022-09-26T20:42:05.269Z,11.94
2022-09-26T20:46:06.247Z,11.81
2022-09-26T20:52:13.777Z,11.73
2022-09-26T20:53:39.978Z,11.70
2022-09-26T20:56:09.143Z,11.65
2022-09-26T21:01:50.620Z,11.55
2022-09-26T21:07:02.036Z,11.51
2022-09-26T21:08:51.744Z,11.51
2022-09-26T21:18:34.514Z,11.47
2022-09-26T21:22:02.820Z,11.45
2022-09-26T21:24:00.403Z,11.44
2022-09-26T21:25:30.329Z,11.44
2022-09-26T21:27:00.717Z,11.43
2022-09-26T21:28:29.657Z,11.41
2022-09-26T21:31:18.486Z,11.40
2022-09-26T21:33:15.973Z,11.43
2022-09-26T21:34:44.981Z,11.41
2022-09-26T21:39:03.118Z,11.45
2022-09-26T21:42:02.867Z,11.44
2022-09-26T21:45:01.725Z,11.47
2022-09-26T21:46:31.640Z,11.47
2022-09-26T21:48:00.514Z,11.47
2022-09-26T21:49:29.387Z,11.48
2022-09-26T21:53:38.844Z,11.52
2022-09-26T21:55:08.747Z,11.52
2022-09-26T21:58:37.345Z,11.55
2022-09-26T22:00:06.242Z,11.57
2022-09-26T22:02:05.294Z,11.57
2022-09-26T22:06:52.706Z,11.59
2022-09-26T22:09:22.408Z,11.59
2022-09-26T22:10:49.400Z,11.57
2022-09-26T22:13:18.078Z,11.57
2022-09-26T22:16:07.088Z,11.55
2022-09-26T22:18:09.044Z,11.55
2022-09-26T22:22:10.467Z,11.52
2022-09-26T22:27:11.539Z,11.48
2022-09-26T22:33:26.188Z,11.40
2022-09-26T22:35:46.297Z,11.37
2022-09-26T22:44:02.325Z,11.29
2022-09-26T22:45:31.413Z,11.27
2022-09-26T22:47:51.052Z,11.26
2022-09-26T22:51:53.145Z,11.25
2022-09-26T22:55:50.347Z,11.23
2022-09-26T22:57:40.671Z,11.22
2022-09-26T23:01:36.918Z,11.18
2022-09-26T23:03:03.924Z,11.17
2022-09-26T23:11:17.880Z,11.14
2022-09-26T23:13:47.540Z,11.14
2022-09-26T23:19:06.773Z,11.10
2022-09-26T23:22:24.359Z,11.08
2022-09-26T23:24:41.496Z,11.05
2022-09-26T23:27:59.209Z,11.04
2022-09-26T23:30:49.129Z,11.02
2022-09-26T23:37:02.463Z,11.02
2022-09-26T23:45:03.048Z,11.00
2022-09-26T23:46:32.953Z,10.99
2022-09-26T23:48:03.466Z,10.99
2022-09-26T23:51:22.049Z,10.97
2022-09-26T23:53:50.232Z,10.96
2022-09-26T23:59:15.654Z,10.90
